This is the latest recevied weather packets stored in our database for station/object VE6EN. If no packets are shown the sender has not sent any weather packets the latest 1 day(s).
| Time | Temp. | Humidity | Pressure | Rain* | Wind** | Luminosity | Snow |
|---|---|---|---|---|---|---|---|
| 1778090999 | 17.78° C | 33% | 1006.9 hPa | 0 mm | - | - | - |
| 1778087999 | 14.44° C | 35% | 1007.6 hPa | 0 mm | - | - | - |
| 1778086199 | 12.78° C | 38% | 1008.1 hPa | 0 mm | - | - | - |
| 1778084999 | 11.67° C | 41% | 1008.3 hPa | 0 mm | - | - | - |
| 1778081999 | 8.33° C | 46% | 1008.9 hPa | 0 mm | - | - | - |
| 1778077198 | 3.89° C | 56% | 1009.5 hPa | 0 mm | - | - | - |
| 1778074198 | -1.11° C | 69% | 1009.9 hPa | 0 mm | - | - | - |
| 1778072998 | -2.22° C | 69% | 1009.9 hPa | 0 mm | - | - | - |
| 1778070598 | -2.22° C | 68% | 1010.1 hPa | 0 mm | - | - | - |
| 1778069398 | -1.67° C | 66% | 1010.1 hPa | 0 mm | - | - | - |
| 1778068200 | -1.11° C | 64% | 1010.3 hPa | 0 mm | - | - | - |
| 1778066998 | -1.11° C | 62% | 1010.6 hPa | 0 mm | - | - | - |
| 1778066398 | -0.56° C | 61% | 1010.7 hPa | 0 mm | - | - | - |
| 1778064000 | 0° C | 60% | 1011.1 hPa | 0 mm | - | - | - |
| 1778062800 | 0° C | 58% | 1011.3 hPa | 0 mm | - | - | - |
| 1778062199 | 0° C | 58% | 1011.6 hPa | 0 mm | - | - | - |
| 1778060999 | 0° C | 57% | 1011.8 hPa | 0 mm | - | - | - |
| 1778059799 | 0.56° C | 56% | 1012.2 hPa | 0 mm | - | - | - |
| 1778059200 | 0.56° C | 56% | 1012.3 hPa | 0 mm | - | - | - |
| 1778058000 | 0.56° C | 55% | 1012.5 hPa | 0 mm | - | - | - |
| 1778057397 | 1.11° C | 55% | 1012.6 hPa | 0 mm | - | - | - |
| 1778054398 | 1.11° C | 54% | 1013.2 hPa | 0 mm | - | - | - |
| 1778053798 | 1.11° C | 54% | 1013.3 hPa | 0 mm | - | - | - |
| 1778051997 | 1.67° C | 53% | 1013.7 hPa | 0 mm | - | - | - |
| 1778051398 | 1.67° C | 52% | 1013.8 hPa | 0 mm | - | - | - |
* Rain latest hour (hover to see other rain measurements)
** Current wind speed in m/s (hover to see current wind gust speed)